sensor_id;sensor_type;location;lat;lon;timestamp;P1;durP1;ratioP1;P2;durP2;ratioP2
17858;SDS011;35426;30.698;104.050;2023-10-08T00:00:49;27.30;;;16.57;;
17858;SDS011;35426;30.698;104.050;2023-10-08T00:03:25;27.30;;;16.67;;
17858;SDS011;35426;30.698;104.050;2023-10-08T00:06:02;26.97;;;16.87;;
17858;SDS011;35426;30.698;104.050;2023-10-08T00:08:42;25.70;;;16.77;;
17858;SDS011;35426;30.698;104.050;2023-10-08T00:11:17;31.13;;;17.67;;
17858;SDS011;35426;30.698;104.050;2023-10-08T00:13:52;28.03;;;17.93;;
17858;SDS011;35426;30.698;104.050;2023-10-08T00:16:32;30.80;;;19.33;;
17858;SDS011;35426;30.698;104.050;2023-10-08T00:19:08;32.70;;;19.07;;
17858;SDS011;35426;30.698;104.050;2023-10-08T00:21:45;34.37;;;20.70;;
17858;SDS011;35426;30.698;104.050;2023-10-08T00:24:22;32.47;;;21.33;;
17858;SDS011;35426;30.698;104.050;2023-10-08T00:26:56;36.40;;;21.43;;
17858;SDS011;35426;30.698;104.050;2023-10-08T00:29:33;37.47;;;21.53;;
17858;SDS011;35426;30.698;104.050;2023-10-08T00:32:15;40.20;;;22.70;;
17858;SDS011;35426;30.698;104.050;2023-10-08T00:34:49;33.80;;;20.63;;
17858;SDS011;35426;30.698;104.050;2023-10-08T00:37:24;33.07;;;20.77;;
17858;SDS011;35426;30.698;104.050;2023-10-08T00:39:58;34.37;;;19.90;;
17858;SDS011;35426;30.698;104.050;2023-10-08T00:42:34;33.83;;;19.63;;
17858;SDS011;35426;30.698;104.050;2023-10-08T00:45:14;29.77;;;19.43;;
17858;SDS011;35426;30.698;104.050;2023-10-08T00:47:51;30.27;;;19.90;;
17858;SDS011;35426;30.698;104.050;2023-10-08T00:50:29;30.77;;;19.33;;
17858;SDS011;35426;30.698;104.050;2023-10-08T00:53:12;27.73;;;19.43;;
17858;SDS011;35426;30.698;104.050;2023-10-08T00:55:52;30.13;;;19.73;;
17858;SDS011;35426;30.698;104.050;2023-10-08T00:58:38;33.57;;;21.47;;
17858;SDS011;35426;30.698;104.050;2023-10-08T01:01:15;33.27;;;20.03;;
17858;SDS011;35426;30.698;104.050;2023-10-08T01:03:55;32.47;;;20.90;;
17858;SDS011;35426;30.698;104.050;2023-10-08T01:06:32;32.30;;;19.47;;
17858;SDS011;35426;30.698;104.050;2023-10-08T01:09:10;32.80;;;20.50;;
17858;SDS011;35426;30.698;104.050;2023-10-08T01:12:06;37.00;;;22.40;;
17858;SDS011;35426;30.698;104.050;2023-10-08T01:14:46;36.53;;;20.07;;
17858;SDS011;35426;30.698;104.050;2023-10-08T01:17:23;38.27;;;22.57;;
17858;SDS011;35426;30.698;104.050;2023-10-08T01:20:04;32.07;;;20.07;;
17858;SDS011;35426;30.698;104.050;2023-10-08T01:22:53;33.63;;;20.87;;
17858;SDS011;35426;30.698;104.050;2023-10-08T01:25:27;27.37;;;19.07;;
17858;SDS011;35426;30.698;104.050;2023-10-08T01:28:03;32.43;;;19.73;;
17858;SDS011;35426;30.698;104.050;2023-10-08T01:30:44;32.60;;;20.17;;
17858;SDS011;35426;30.698;104.050;2023-10-08T01:33:23;28.87;;;18.93;;
17858;SDS011;35426;30.698;104.050;2023-10-08T01:35:58;30.97;;;19.43;;
17858;SDS011;35426;30.698;104.050;2023-10-08T01:38:35;39.03;;;24.00;;
17858;SDS011;35426;30.698;104.050;2023-10-08T01:41:11;38.70;;;22.17;;
17858;SDS011;35426;30.698;104.050;2023-10-08T01:43:52;42.10;;;23.67;;
17858;SDS011;35426;30.698;104.050;2023-10-08T01:46:26;40.13;;;24.20;;
17858;SDS011;35426;30.698;104.050;2023-10-08T01:49:01;54.83;;;29.37;;
17858;SDS011;35426;30.698;104.050;2023-10-08T01:51:43;57.07;;;32.47;;
17858;SDS011;35426;30.698;104.050;2023-10-08T01:54:22;62.53;;;31.67;;
17858;SDS011;35426;30.698;104.050;2023-10-08T01:56:56;57.87;;;33.77;;
17858;SDS011;35426;30.698;104.050;2023-10-08T01:59:32;62.93;;;33.57;;
17858;SDS011;35426;30.698;104.050;2023-10-08T02:02:08;74.37;;;39.10;;
17858;SDS011;35426;30.698;104.050;2023-10-08T02:04:44;60.87;;;32.67;;
17858;SDS011;35426;30.698;104.050;2023-10-08T02:07:20;60.47;;;34.23;;
17858;SDS011;35426;30.698;104.050;2023-10-08T02:09:57;63.33;;;35.37;;
17858;SDS011;35426;30.698;104.050;2023-10-08T02:12:33;64.03;;;34.77;;
17858;SDS011;35426;30.698;104.050;2023-10-08T02:15:09;67.43;;;36.30;;
17858;SDS011;35426;30.698;104.050;2023-10-08T02:17:45;68.27;;;35.03;;
17858;SDS011;35426;30.698;104.050;2023-10-08T02:20:20;67.03;;;35.87;;
17858;SDS011;35426;30.698;104.050;2023-10-08T02:22:54;68.67;;;36.20;;
17858;SDS011;35426;30.698;104.050;2023-10-08T02:25:31;67.17;;;34.57;;
17858;SDS011;35426;30.698;104.050;2023-10-08T02:28:07;73.93;;;38.63;;
17858;SDS011;35426;30.698;104.050;2023-10-08T02:30:45;75.73;;;38.43;;
17858;SDS011;35426;30.698;104.050;2023-10-08T02:33:21;74.13;;;39.43;;
17858;SDS011;35426;30.698;104.050;2023-10-08T02:35:56;72.87;;;40.83;;
17858;SDS011;35426;30.698;104.050;2023-10-08T02:38:30;78.17;;;39.33;;
17858;SDS011;35426;30.698;104.050;2023-10-08T02:41:15;79.63;;;40.10;;
17858;SDS011;35426;30.698;104.050;2023-10-08T02:43:49;77.17;;;41.10;;
17858;SDS011;35426;30.698;104.050;2023-10-08T02:46:23;77.77;;;39.73;;
17858;SDS011;35426;30.698;104.050;2023-10-08T02:48:58;75.20;;;40.83;;
17858;SDS011;35426;30.698;104.050;2023-10-08T02:51:34;75.17;;;42.90;;
17858;SDS011;35426;30.698;104.050;2023-10-08T02:54:10;82.17;;;42.90;;
17858;SDS011;35426;30.698;104.050;2023-10-08T02:56:51;78.47;;;41.63;;
17858;SDS011;35426;30.698;104.050;2023-10-08T02:59:28;76.17;;;40.23;;
17858;SDS011;35426;30.698;104.050;2023-10-08T03:02:11;79.03;;;41.10;;
17858;SDS011;35426;30.698;104.050;2023-10-08T03:04:49;70.87;;;39.97;;
17858;SDS011;35426;30.698;104.050;2023-10-08T03:07:24;68.17;;;38.13;;
17858;SDS011;35426;30.698;104.050;2023-10-08T03:10:01;71.87;;;39.10;;
17858;SDS011;35426;30.698;104.050;2023-10-08T03:12:50;67.00;;;40.77;;
17858;SDS011;35426;30.698;104.050;2023-10-08T03:15:25;73.90;;;41.63;;
17858;SDS011;35426;30.698;104.050;2023-10-08T03:18:07;68.87;;;39.57;;
17858;SDS011;35426;30.698;104.050;2023-10-08T03:20:47;65.47;;;37.00;;
17858;SDS011;35426;30.698;104.050;2023-10-08T03:23:22;62.40;;;36.67;;
17858;SDS011;35426;30.698;104.050;2023-10-08T03:26:03;65.83;;;38.63;;
17858;SDS011;35426;30.698;104.050;2023-10-08T03:28:45;62.73;;;36.37;;
17858;SDS011;35426;30.698;104.050;2023-10-08T03:31:28;68.80;;;37.80;;
17858;SDS011;35426;30.698;104.050;2023-10-08T03:34:21;63.63;;;36.40;;
17858;SDS011;35426;30.698;104.050;2023-10-08T03:36:58;61.90;;;35.73;;
17858;SDS011;35426;30.698;104.050;2023-10-08T03:39:37;65.70;;;35.43;;
17858;SDS011;35426;30.698;104.050;2023-10-08T03:42:30;60.63;;;35.33;;
17858;SDS011;35426;30.698;104.050;2023-10-08T03:45:12;58.00;;;33.93;;
17858;SDS011;35426;30.698;104.050;2023-10-08T03:47:52;61.73;;;37.57;;
17858;SDS011;35426;30.698;104.050;2023-10-08T03:50:37;65.67;;;37.67;;
17858;SDS011;35426;30.698;104.050;2023-10-08T03:53:14;64.57;;;37.67;;
17858;SDS011;35426;30.698;104.050;2023-10-08T03:55:52;58.03;;;35.17;;
17858;SDS011;35426;30.698;104.050;2023-10-08T03:58:31;57.33;;;35.30;;
17858;SDS011;35426;30.698;104.050;2023-10-08T04:01:13;64.53;;;36.70;;
17858;SDS011;35426;30.698;104.050;2023-10-08T04:03:51;62.37;;;37.27;;
17858;SDS011;35426;30.698;104.050;2023-10-08T04:06:32;60.50;;;36.87;;
17858;SDS011;35426;30.698;104.050;2023-10-08T04:09:15;64.20;;;38.10;;
17858;SDS011;35426;30.698;104.050;2023-10-08T04:11:54;61.10;;;36.27;;
17858;SDS011;35426;30.698;104.050;2023-10-08T04:14:38;61.57;;;37.40;;
17858;SDS011;35426;30.698;104.050;2023-10-08T04:17:16;65.97;;;38.70;;
17858;SDS011;35426;30.698;104.050;2023-10-08T04:19:52;65.73;;;37.60;;
17858;SDS011;35426;30.698;104.050;2023-10-08T04:22:27;65.50;;;38.20;;
17858;SDS011;35426;30.698;104.050;2023-10-08T04:25:01;64.53;;;39.33;;
17858;SDS011;35426;30.698;104.050;2023-10-08T04:27:38;66.63;;;38.27;;
17858;SDS011;35426;30.698;104.050;2023-10-08T04:30:13;63.27;;;37.73;;
17858;SDS011;35426;30.698;104.050;2023-10-08T04:32:51;67.20;;;39.33;;
17858;SDS011;35426;30.698;104.050;2023-10-08T04:35:27;71.17;;;39.40;;
17858;SDS011;35426;30.698;104.050;2023-10-08T04:38:04;64.67;;;36.97;;
17858;SDS011;35426;30.698;104.050;2023-10-08T04:40:45;59.77;;;34.27;;
17858;SDS011;35426;30.698;104.050;2023-10-08T04:43:24;62.63;;;34.97;;
17858;SDS011;35426;30.698;104.050;2023-10-08T04:46:02;66.57;;;39.37;;
17858;SDS011;35426;30.698;104.050;2023-10-08T04:48:51;74.20;;;41.00;;
17858;SDS011;35426;30.698;104.050;2023-10-08T04:51:28;69.40;;;39.13;;
17858;SDS011;35426;30.698;104.050;2023-10-08T04:54:12;66.33;;;38.47;;
17858;SDS011;35426;30.698;104.050;2023-10-08T04:56:47;66.30;;;39.70;;
17858;SDS011;35426;30.698;104.050;2023-10-08T04:59:23;66.70;;;38.27;;
17858;SDS011;35426;30.698;104.050;2023-10-08T05:02:03;64.47;;;38.53;;
17858;SDS011;35426;30.698;104.050;2023-10-08T05:05:07;67.50;;;39.80;;
17858;SDS011;35426;30.698;104.050;2023-10-08T05:07:59;68.97;;;40.27;;
17858;SDS011;35426;30.698;104.050;2023-10-08T05:10:38;73.57;;;41.50;;
17858;SDS011;35426;30.698;104.050;2023-10-08T05:13:31;66.80;;;38.20;;
17858;SDS011;35426;30.698;104.050;2023-10-08T05:16:15;64.57;;;37.83;;
17858;SDS011;35426;30.698;104.050;2023-10-08T05:19:05;69.17;;;39.10;;
17858;SDS011;35426;30.698;104.050;2023-10-08T05:21:56;61.73;;;36.13;;
17858;SDS011;35426;30.698;104.050;2023-10-08T05:24:47;64.33;;;37.20;;
17858;SDS011;35426;30.698;104.050;2023-10-08T05:27:39;68.67;;;39.23;;
17858;SDS011;35426;30.698;104.050;2023-10-08T05:30:39;66.10;;;38.53;;
17858;SDS011;35426;30.698;104.050;2023-10-08T05:33:22;60.83;;;37.83;;
17858;SDS011;35426;30.698;104.050;2023-10-08T05:36:14;63.03;;;37.87;;
17858;SDS011;35426;30.698;104.050;2023-10-08T05:39:00;63.73;;;36.63;;
17858;SDS011;35426;30.698;104.050;2023-10-08T05:41:50;59.80;;;35.30;;
17858;SDS011;35426;30.698;104.050;2023-10-08T05:44:36;60.33;;;35.07;;
17858;SDS011;35426;30.698;104.050;2023-10-08T05:47:13;56.43;;;34.97;;
17858;SDS011;35426;30.698;104.050;2023-10-08T05:50:10;63.20;;;37.37;;
17858;SDS011;35426;30.698;104.050;2023-10-08T05:52:58;60.43;;;37.07;;
17858;SDS011;35426;30.698;104.050;2023-10-08T05:55:47;63.53;;;38.33;;
17858;SDS011;35426;30.698;104.050;2023-10-08T05:58:31;63.53;;;38.30;;
17858;SDS011;35426;30.698;104.050;2023-10-08T06:01:15;60.20;;;37.23;;
17858;SDS011;35426;30.698;104.050;2023-10-08T06:04:10;58.37;;;34.97;;
17858;SDS011;35426;30.698;104.050;2023-10-08T06:07:11;54.20;;;32.27;;
17858;SDS011;35426;30.698;104.050;2023-10-08T06:09:52;51.23;;;29.53;;
17858;SDS011;35426;30.698;104.050;2023-10-08T06:12:56;52.80;;;32.70;;
17858;SDS011;35426;30.698;104.050;2023-10-08T06:15:35;57.53;;;32.97;;
17858;SDS011;35426;30.698;104.050;2023-10-08T06:18:14;60.03;;;35.17;;
17858;SDS011;35426;30.698;104.050;2023-10-08T06:20:53;55.10;;;32.73;;
17858;SDS011;35426;30.698;104.050;2023-10-08T06:23:29;56.00;;;35.03;;
17858;SDS011;35426;30.698;104.050;2023-10-08T06:26:05;57.43;;;33.87;;
17858;SDS011;35426;30.698;104.050;2023-10-08T06:28:46;54.70;;;32.77;;
17858;SDS011;35426;30.698;104.050;2023-10-08T06:31:28;58.77;;;35.73;;
17858;SDS011;35426;30.698;104.050;2023-10-08T06:34:05;57.10;;;33.00;;
17858;SDS011;35426;30.698;104.050;2023-10-08T06:36:42;58.30;;;33.33;;
17858;SDS011;35426;30.698;104.050;2023-10-08T06:39:17;52.47;;;32.17;;
17858;SDS011;35426;30.698;104.050;2023-10-08T06:41:55;56.43;;;32.67;;
17858;SDS011;35426;30.698;104.050;2023-10-08T06:44:36;52.47;;;31.63;;
17858;SDS011;35426;30.698;104.050;2023-10-08T06:47:12;55.77;;;31.80;;
17858;SDS011;35426;30.698;104.050;2023-10-08T06:49:48;62.07;;;34.13;;
17858;SDS011;35426;30.698;104.050;2023-10-08T06:52:27;55.97;;;31.93;;
17858;SDS011;35426;30.698;104.050;2023-10-08T06:55:03;56.20;;;31.83;;
17858;SDS011;35426;30.698;104.050;2023-10-08T06:57:40;53.23;;;29.73;;
17858;SDS011;35426;30.698;104.050;2023-10-08T07:00:20;54.57;;;32.30;;
17858;SDS011;35426;30.698;104.050;2023-10-08T07:03:07;50.73;;;30.27;;
17858;SDS011;35426;30.698;104.050;2023-10-08T07:05:45;60.53;;;35.17;;
17858;SDS011;35426;30.698;104.050;2023-10-08T07:08:28;69.33;;;36.83;;
17858;SDS011;35426;30.698;104.050;2023-10-08T07:11:05;62.27;;;35.13;;
17858;SDS011;35426;30.698;104.050;2023-10-08T07:13:41;62.93;;;35.53;;
17858;SDS011;35426;30.698;104.050;2023-10-08T07:16:17;68.30;;;36.40;;
17858;SDS011;35426;30.698;104.050;2023-10-08T07:18:52;62.10;;;35.93;;
17858;SDS011;35426;30.698;104.050;2023-10-08T07:21:31;60.47;;;35.13;;
17858;SDS011;35426;30.698;104.050;2023-10-08T07:24:16;70.90;;;36.20;;
17858;SDS011;35426;30.698;104.050;2023-10-08T07:26:51;58.80;;;36.30;;
17858;SDS011;35426;30.698;104.050;2023-10-08T07:29:25;70.83;;;36.80;;
17858;SDS011;35426;30.698;104.050;2023-10-08T07:32:01;66.03;;;35.93;;
17858;SDS011;35426;30.698;104.050;2023-10-08T07:34:39;59.80;;;36.50;;
17858;SDS011;35426;30.698;104.050;2023-10-08T07:37:15;64.77;;;36.20;;
17858;SDS011;35426;30.698;104.050;2023-10-08T07:39:52;64.00;;;38.73;;
17858;SDS011;35426;30.698;104.050;2023-10-08T07:42:32;61.37;;;35.90;;
17858;SDS011;35426;30.698;104.050;2023-10-08T07:45:07;64.20;;;37.07;;
17858;SDS011;35426;30.698;104.050;2023-10-08T07:47:49;67.57;;;38.17;;
17858;SDS011;35426;30.698;104.050;2023-10-08T07:50:24;65.77;;;37.30;;
17858;SDS011;35426;30.698;104.050;2023-10-08T07:53:00;68.10;;;38.70;;
17858;SDS011;35426;30.698;104.050;2023-10-08T07:55:35;63.60;;;36.73;;
17858;SDS011;35426;30.698;104.050;2023-10-08T07:58:09;64.83;;;38.03;;
17858;SDS011;35426;30.698;104.050;2023-10-08T08:00:44;73.27;;;39.30;;
17858;SDS011;35426;30.698;104.050;2023-10-08T08:03:26;68.80;;;38.00;;
17858;SDS011;35426;30.698;104.050;2023-10-08T08:06:01;63.53;;;37.07;;
17858;SDS011;35426;30.698;104.050;2023-10-08T08:08:35;68.93;;;39.03;;
17858;SDS011;35426;30.698;104.050;2023-10-08T08:11:11;67.97;;;38.57;;
17858;SDS011;35426;30.698;104.050;2023-10-08T08:13:47;75.60;;;41.87;;
17858;SDS011;35426;30.698;104.050;2023-10-08T08:16:22;75.47;;;41.07;;
17858;SDS011;35426;30.698;104.050;2023-10-08T08:19:02;80.13;;;41.17;;
17858;SDS011;35426;30.698;104.050;2023-10-08T08:21:41;70.80;;;41.23;;
17858;SDS011;35426;30.698;104.050;2023-10-08T08:24:17;74.80;;;41.07;;
17858;SDS011;35426;30.698;104.050;2023-10-08T08:26:58;77.77;;;42.73;;
17858;SDS011;35426;30.698;104.050;2023-10-08T08:29:38;73.20;;;41.67;;
17858;SDS011;35426;30.698;104.050;2023-10-08T08:32:15;73.90;;;40.90;;
17858;SDS011;35426;30.698;104.050;2023-10-08T08:34:54;85.07;;;43.93;;
17858;SDS011;35426;30.698;104.050;2023-10-08T08:37:28;81.30;;;43.80;;
17858;SDS011;35426;30.698;104.050;2023-10-08T08:40:05;77.70;;;43.73;;
17858;SDS011;35426;30.698;104.050;2023-10-08T08:42:47;80.90;;;42.77;;
17858;SDS011;35426;30.698;104.050;2023-10-08T08:45:23;79.03;;;44.50;;
17858;SDS011;35426;30.698;104.050;2023-10-08T08:47:57;79.07;;;43.37;;
17858;SDS011;35426;30.698;104.050;2023-10-08T08:50:34;88.63;;;44.93;;
17858;SDS011;35426;30.698;104.050;2023-10-08T08:53:09;82.93;;;42.90;;
17858;SDS011;35426;30.698;104.050;2023-10-08T08:55:47;72.57;;;39.43;;
17858;SDS011;35426;30.698;104.050;2023-10-08T08:58:24;72.50;;;40.67;;
17858;SDS011;35426;30.698;104.050;2023-10-08T09:00:59;66.37;;;37.80;;
17858;SDS011;35426;30.698;104.050;2023-10-08T09:03:36;66.10;;;38.23;;
17858;SDS011;35426;30.698;104.050;2023-10-08T09:06:14;65.63;;;38.27;;
17858;SDS011;35426;30.698;104.050;2023-10-08T09:08:48;72.53;;;39.03;;
17858;SDS011;35426;30.698;104.050;2023-10-08T09:11:25;71.80;;;38.83;;
17858;SDS011;35426;30.698;104.050;2023-10-08T09:14:02;68.50;;;37.87;;
17858;SDS011;35426;30.698;104.050;2023-10-08T09:16:36;72.60;;;37.70;;
17858;SDS011;35426;30.698;104.050;2023-10-08T09:19:10;68.87;;;39.40;;
17858;SDS011;35426;30.698;104.050;2023-10-08T09:22:01;74.57;;;41.20;;
17858;SDS011;35426;30.698;104.050;2023-10-08T09:24:36;76.73;;;41.57;;
17858;SDS011;35426;30.698;104.050;2023-10-08T09:27:12;74.87;;;40.40;;
17858;SDS011;35426;30.698;104.050;2023-10-08T09:29:49;78.00;;;43.60;;
17858;SDS011;35426;30.698;104.050;2023-10-08T09:32:31;81.03;;;41.70;;
17858;SDS011;35426;30.698;104.050;2023-10-08T09:35:06;86.47;;;43.33;;
17858;SDS011;35426;30.698;104.050;2023-10-08T09:37:45;67.23;;;39.90;;
17858;SDS011;35426;30.698;104.050;2023-10-08T09:40:19;75.70;;;41.43;;
17858;SDS011;35426;30.698;104.050;2023-10-08T09:42:55;67.27;;;38.67;;
17858;SDS011;35426;30.698;104.050;2023-10-08T09:45:33;71.87;;;40.43;;
17858;SDS011;35426;30.698;104.050;2023-10-08T09:48:10;74.37;;;41.43;;
17858;SDS011;35426;30.698;104.050;2023-10-08T09:50:50;71.70;;;41.50;;
17858;SDS011;35426;30.698;104.050;2023-10-08T09:53:28;73.97;;;42.73;;
17858;SDS011;35426;30.698;104.050;2023-10-08T09:56:14;73.90;;;40.30;;
17858;SDS011;35426;30.698;104.050;2023-10-08T09:58:51;72.50;;;40.03;;
17858;SDS011;35426;30.698;104.050;2023-10-08T10:01:25;65.17;;;39.43;;
17858;SDS011;35426;30.698;104.050;2023-10-08T10:04:02;70.10;;;39.50;;
17858;SDS011;35426;30.698;104.050;2023-10-08T10:06:42;72.07;;;41.50;;
17858;SDS011;35426;30.698;104.050;2023-10-08T10:09:23;66.53;;;37.33;;
17858;SDS011;35426;30.698;104.050;2023-10-08T10:11:58;66.33;;;38.13;;
17858;SDS011;35426;30.698;104.050;2023-10-08T10:14:40;64.30;;;38.00;;
17858;SDS011;35426;30.698;104.050;2023-10-08T10:17:15;67.77;;;36.63;;
17858;SDS011;35426;30.698;104.050;2023-10-08T10:20:11;71.27;;;37.50;;
17858;SDS011;35426;30.698;104.050;2023-10-08T10:22:47;64.40;;;36.93;;
17858;SDS011;35426;30.698;104.050;2023-10-08T10:25:33;68.27;;;36.73;;
17858;SDS011;35426;30.698;104.050;2023-10-08T10:28:22;63.13;;;35.93;;
17858;SDS011;35426;30.698;104.050;2023-10-08T10:30:59;60.43;;;35.17;;
17858;SDS011;35426;30.698;104.050;2023-10-08T10:33:34;58.23;;;33.67;;
17858;SDS011;35426;30.698;104.050;2023-10-08T10:36:09;60.07;;;34.30;;
17858;SDS011;35426;30.698;104.050;2023-10-08T10:38:43;65.23;;;35.30;;
17858;SDS011;35426;30.698;104.050;2023-10-08T10:41:22;66.97;;;34.27;;
17858;SDS011;35426;30.698;104.050;2023-10-08T10:43:58;53.20;;;32.73;;
17858;SDS011;35426;30.698;104.050;2023-10-08T10:46:38;54.47;;;32.70;;
17858;SDS011;35426;30.698;104.050;2023-10-08T10:49:13;58.20;;;33.53;;
17858;SDS011;35426;30.698;104.050;2023-10-08T10:51:50;65.27;;;33.43;;
17858;SDS011;35426;30.698;104.050;2023-10-08T10:54:27;53.53;;;33.30;;
17858;SDS011;35426;30.698;104.050;2023-10-08T10:57:08;60.23;;;31.90;;
17858;SDS011;35426;30.698;104.050;2023-10-08T10:59:47;54.70;;;31.63;;
17858;SDS011;35426;30.698;104.050;2023-10-08T11:02:24;49.83;;;32.73;;
17858;SDS011;35426;30.698;104.050;2023-10-08T11:05:01;52.40;;;31.57;;
17858;SDS011;35426;30.698;104.050;2023-10-08T11:07:49;52.93;;;31.87;;
17858;SDS011;35426;30.698;104.050;2023-10-08T11:10:28;59.63;;;32.50;;
17858;SDS011;35426;30.698;104.050;2023-10-08T11:13:06;55.07;;;32.60;;
17858;SDS011;35426;30.698;104.050;2023-10-08T11:15:44;52.20;;;30.37;;
17858;SDS011;35426;30.698;104.050;2023-10-08T11:18:22;48.50;;;32.27;;
17858;SDS011;35426;30.698;104.050;2023-10-08T11:21:05;55.53;;;33.20;;
17858;SDS011;35426;30.698;104.050;2023-10-08T11:23:48;53.80;;;31.37;;
17858;SDS011;35426;30.698;104.050;2023-10-08T11:26:34;54.03;;;31.73;;
17858;SDS011;35426;30.698;104.050;2023-10-08T11:29:26;53.57;;;33.27;;
17858;SDS011;35426;30.698;104.050;2023-10-08T11:32:00;53.00;;;31.73;;
17858;SDS011;35426;30.698;104.050;2023-10-08T11:34:36;60.13;;;34.27;;
17858;SDS011;35426;30.698;104.050;2023-10-08T11:37:11;55.90;;;34.00;;
17858;SDS011;35426;30.698;104.050;2023-10-08T11:39:55;62.30;;;35.07;;
17858;SDS011;35426;30.698;104.050;2023-10-08T11:42:29;56.80;;;35.77;;
17858;SDS011;35426;30.698;104.050;2023-10-08T11:45:22;60.80;;;35.53;;
17858;SDS011;35426;30.698;104.050;2023-10-08T11:47:58;56.97;;;33.33;;
17858;SDS011;35426;30.698;104.050;2023-10-08T11:50:32;58.07;;;34.63;;
17858;SDS011;35426;30.698;104.050;2023-10-08T11:53:08;55.17;;;35.03;;
17858;SDS011;35426;30.698;104.050;2023-10-08T11:55:43;55.23;;;33.37;;
17858;SDS011;35426;30.698;104.050;2023-10-08T11:58:18;56.03;;;33.67;;
17858;SDS011;35426;30.698;104.050;2023-10-08T12:01:08;55.40;;;33.07;;
17858;SDS011;35426;30.698;104.050;2023-10-08T12:03:45;54.70;;;32.77;;
17858;SDS011;35426;30.698;104.050;2023-10-08T12:06:21;54.07;;;31.57;;
17858;SDS011;35426;30.698;104.050;2023-10-08T12:08:59;56.63;;;32.93;;
17858;SDS011;35426;30.698;104.050;2023-10-08T12:11:41;57.47;;;33.73;;
17858;SDS011;35426;30.698;104.050;2023-10-08T12:14:16;60.53;;;33.17;;
17858;SDS011;35426;30.698;104.050;2023-10-08T12:16:52;54.87;;;33.23;;
17858;SDS011;35426;30.698;104.050;2023-10-08T12:19:30;59.50;;;33.43;;
17858;SDS011;35426;30.698;104.050;2023-10-08T12:22:05;66.43;;;32.77;;
17858;SDS011;35426;30.698;104.050;2023-10-08T12:24:39;59.43;;;31.70;;
17858;SDS011;35426;30.698;104.050;2023-10-08T12:27:15;62.07;;;33.13;;
17858;SDS011;35426;30.698;104.050;2023-10-08T12:29:51;59.27;;;33.33;;
17858;SDS011;35426;30.698;104.050;2023-10-08T12:32:30;57.97;;;31.83;;
17858;SDS011;35426;30.698;104.050;2023-10-08T12:35:07;54.80;;;32.73;;
17858;SDS011;35426;30.698;104.050;2023-10-08T12:37:42;54.50;;;32.10;;
17858;SDS011;35426;30.698;104.050;2023-10-08T12:40:17;57.03;;;31.53;;
17858;SDS011;35426;30.698;104.050;2023-10-08T12:42:54;51.97;;;30.93;;
17858;SDS011;35426;30.698;104.050;2023-10-08T12:45:29;54.10;;;29.97;;
17858;SDS011;35426;30.698;104.050;2023-10-08T12:48:07;52.87;;;30.37;;
17858;SDS011;35426;30.698;104.050;2023-10-08T12:50:47;52.60;;;26.13;;
17858;SDS011;35426;30.698;104.050;2023-10-08T12:53:29;42.40;;;25.73;;
17858;SDS011;35426;30.698;104.050;2023-10-08T12:56:07;37.47;;;21.73;;
17858;SDS011;35426;30.698;104.050;2023-10-08T12:58:47;36.10;;;22.87;;
17858;SDS011;35426;30.698;104.050;2023-10-08T13:01:23;38.87;;;20.57;;
17858;SDS011;35426;30.698;104.050;2023-10-08T13:04:01;36.00;;;21.27;;
17858;SDS011;35426;30.698;104.050;2023-10-08T13:06:45;31.07;;;18.70;;
17858;SDS011;35426;30.698;104.050;2023-10-08T13:09:20;35.47;;;18.23;;
17858;SDS011;35426;30.698;104.050;2023-10-08T13:11:59;30.37;;;16.83;;
17858;SDS011;35426;30.698;104.050;2023-10-08T13:14:34;29.43;;;18.37;;
17858;SDS011;35426;30.698;104.050;2023-10-08T13:17:09;35.73;;;18.03;;
17858;SDS011;35426;30.698;104.050;2023-10-08T13:19:48;30.07;;;19.10;;
17858;SDS011;35426;30.698;104.050;2023-10-08T13:22:24;36.77;;;19.90;;
17858;SDS011;35426;30.698;104.050;2023-10-08T13:24:58;34.47;;;20.33;;
17858;SDS011;35426;30.698;104.050;2023-10-08T13:27:34;31.73;;;19.03;;
17858;SDS011;35426;30.698;104.050;2023-10-08T13:30:10;35.17;;;20.03;;
17858;SDS011;35426;30.698;104.050;2023-10-08T13:32:45;32.73;;;19.57;;
17858;SDS011;35426;30.698;104.050;2023-10-08T13:35:23;36.00;;;19.37;;
17858;SDS011;35426;30.698;104.050;2023-10-08T13:37:58;37.47;;;21.00;;
17858;SDS011;35426;30.698;104.050;2023-10-08T13:40:39;33.33;;;20.67;;
17858;SDS011;35426;30.698;104.050;2023-10-08T13:43:31;31.83;;;19.50;;
17858;SDS011;35426;30.698;104.050;2023-10-08T13:46:07;35.80;;;20.30;;
17858;SDS011;35426;30.698;104.050;2023-10-08T13:48:43;32.23;;;20.33;;
17858;SDS011;35426;30.698;104.050;2023-10-08T13:51:21;33.50;;;21.07;;
17858;SDS011;35426;30.698;104.050;2023-10-08T13:53:57;37.30;;;22.37;;
17858;SDS011;35426;30.698;104.050;2023-10-08T13:56:36;37.70;;;21.13;;
17858;SDS011;35426;30.698;104.050;2023-10-08T13:59:18;41.07;;;23.27;;
17858;SDS011;35426;30.698;104.050;2023-10-08T14:01:54;38.53;;;21.33;;
17858;SDS011;35426;30.698;104.050;2023-10-08T14:04:31;38.30;;;22.60;;
17858;SDS011;35426;30.698;104.050;2023-10-08T14:07:12;36.10;;;21.00;;
17858;SDS011;35426;30.698;104.050;2023-10-08T14:09:48;32.17;;;20.07;;
17858;SDS011;35426;30.698;104.050;2023-10-08T14:12:25;31.10;;;19.57;;
17858;SDS011;35426;30.698;104.050;2023-10-08T14:15:03;35.53;;;20.17;;
17858;SDS011;35426;30.698;104.050;2023-10-08T14:17:45;28.10;;;17.10;;
17858;SDS011;35426;30.698;104.050;2023-10-08T14:20:23;26.87;;;17.37;;
17858;SDS011;35426;30.698;104.050;2023-10-08T14:23:03;29.37;;;18.03;;
17858;SDS011;35426;30.698;104.050;2023-10-08T14:25:37;30.50;;;18.93;;
17858;SDS011;35426;30.698;104.050;2023-10-08T14:28:14;26.17;;;17.97;;
17858;SDS011;35426;30.698;104.050;2023-10-08T14:31:05;27.90;;;16.47;;
17858;SDS011;35426;30.698;104.050;2023-10-08T14:33:45;29.57;;;17.27;;
17858;SDS011;35426;30.698;104.050;2023-10-08T14:36:35;24.93;;;14.70;;
17858;SDS011;35426;30.698;104.050;2023-10-08T14:39:38;25.60;;;14.40;;
17858;SDS011;35426;30.698;104.050;2023-10-08T14:42:28;21.90;;;12.70;;
17858;SDS011;35426;30.698;104.050;2023-10-08T14:45:19;25.53;;;14.37;;
17858;SDS011;35426;30.698;104.050;2023-10-08T14:47:55;23.40;;;13.20;;
17858;SDS011;35426;30.698;104.050;2023-10-08T14:50:31;23.43;;;13.87;;
17858;SDS011;35426;30.698;104.050;2023-10-08T14:53:06;22.17;;;12.63;;
17858;SDS011;35426;30.698;104.050;2023-10-08T14:55:42;19.53;;;12.07;;
17858;SDS011;35426;30.698;104.050;2023-10-08T14:58:18;16.20;;;11.13;;
17858;SDS011;35426;30.698;104.050;2023-10-08T15:00:54;17.83;;;10.67;;
17858;SDS011;35426;30.698;104.050;2023-10-08T15:03:28;12.30;;;8.50;;